Time;durP1;ratioP1;P1;durP2;ratioP2;P2;SDS_P1;SDS_P2;PMS_P1;PMS_P2;Temp;Humidity;BMP_temperature;BMP_pressure;BME280_temperature;BME280_humidity;BME280_pressure;Samples;Min_cycle;Max_cycle;Signal;HPM_P1;HPM_P2
2021/12/04 00:02:05;;;;;;;49.88;23.23;;;;;;;3.92;86.14;100038.19;5066459;28;20036;-63
2021/12/04 00:04:36;;;;;;;52.75;24.52;;;;;;;3.94;85.91;100035.56;5066287;28;20021;-62
2021/12/04 00:07:07;;;;;;;64.47;27.67;;;;;;;3.93;86.05;100028.66;5057450;28;20029;-62
2021/12/04 00:09:33;;;;;;;58.05;27.95;;;;;;;3.91;85.98;100022.59;5048192;28;20542;-62
2021/12/04 00:12:03;;;;;;;54.92;24.75;;;;;;;3.93;86.08;100013.00;5064480;28;20062;-62
2021/12/04 00:14:34;;;;;;;53.58;24.40;;;;;;;3.97;86.10;100017.25;5065748;28;20078;-60
2021/12/04 00:17:01;;;;;;;59.55;25.77;;;;;;;3.94;86.20;100019.94;5066232;28;20094;-62
2021/12/04 00:19:28;;;;;;;62.45;28.55;;;;;;;3.94;86.10;100012.09;5062259;28;20025;-61
2021/12/04 00:21:53;;;;;;;57.15;25.27;;;;;;;3.97;86.24;99999.00;5067073;28;20043;-60
2021/12/04 00:24:19;;;;;;;56.53;22.85;;;;;;;3.95;86.45;100000.81;5047603;28;20024;-62
2021/12/04 00:26:46;;;;;;;60.03;24.75;;;;;;;3.99;86.07;99989.44;5066293;28;20054;-63
2021/12/04 00:29:11;;;;;;;73.88;28.90;;;;;;;3.98;86.04;99995.53;5067205;28;20021;-61
2021/12/04 00:31:37;;;;;;;64.07;25.73;;;;;;;3.98;86.11;99989.47;5066037;28;20744;-61
2021/12/04 00:34:03;;;;;;;68.82;28.58;;;;;;;3.94;86.34;99986.03;5066610;28;20055;-61
2021/12/04 00:37:03;;;;;;;62.83;27.13;;;;;;;3.93;86.29;99986.94;5063181;28;20650;-60
2021/12/04 00:50:12;;;;;;;71.00;24.90;;;;;;;3.97;86.20;99993.81;5067359;28;20130;-63
2021/12/04 00:52:39;;;;;;;68.45;27.70;;;;;;;3.99;86.27;99993.78;5047758;28;20162;-61
2021/12/04 00:55:05;;;;;;;73.22;28.92;;;;;;;3.93;86.52;99989.53;5065303;28;20729;-60
2021/12/04 00:57:31;;;;;;;62.67;24.33;;;;;;;3.98;86.30;99992.94;5066457;28;20530;-60
2021/12/04 00:59:57;;;;;;;83.97;30.17;;;;;;;4.00;86.20;99998.13;5051091;28;20148;-62
2021/12/04 01:02:22;;;;;;;75.35;27.35;;;;;;;4.01;86.19;99986.78;5046529;28;20032;-60
2021/12/04 01:04:48;;;;;;;76.60;26.77;;;;;;;3.99;86.53;99991.16;5049379;28;20159;-62
2021/12/04 01:07:13;;;;;;;69.22;26.45;;;;;;;3.99;86.30;99985.94;5054171;28;20037;-61
2021/12/04 01:09:39;;;;;;;75.90;26.77;;;;;;;4.00;86.49;99983.31;5061777;28;20020;-62
2021/12/04 01:12:05;;;;;;;75.25;28.40;;;;;;;4.00;86.29;99975.50;5045988;28;20104;-62
2021/12/04 01:14:33;;;;;;;75.57;28.80;;;;;;;3.98;86.61;99984.25;5044975;28;20340;-62
2021/12/04 01:16:59;;;;;;;77.40;28.52;;;;;;;4.00;86.63;99983.31;5055991;28;20025;-60
2021/12/04 01:19:25;;;;;;;76.68;28.15;;;;;;;4.00;86.46;99978.09;5041596;28;20032;-61
2021/12/04 01:21:52;;;;;;;89.30;30.55;;;;;;;4.00;86.46;99966.84;5052256;28;20055;-63
2021/12/04 01:24:19;;;;;;;84.00;28.80;;;;;;;4.01;86.48;99958.13;5044939;28;20659;-61
2021/12/04 01:26:45;;;;;;;80.97;28.30;;;;;;;4.00;86.32;99952.03;5045192;28;20108;-62
2021/12/04 01:29:10;;;;;;;75.15;28.13;;;;;;;4.00;86.69;99951.19;5053841;28;20056;-61
2021/12/04 01:31:36;;;;;;;84.07;29.58;;;;;;;3.98;86.90;99952.97;5058788;28;20100;-62
2021/12/04 01:34:01;;;;;;;86.90;28.98;;;;;;;3.99;86.87;99947.72;5065258;28;20020;-61
2021/12/04 01:36:27;;;;;;;84.30;28.35;;;;;;;3.98;86.63;99943.41;5058656;28;20025;-63
2021/12/04 01:38:53;;;;;;;85.10;28.58;;;;;;;3.99;86.73;99942.50;5064880;28;20029;-62
2021/12/04 01:41:18;;;;;;;87.85;28.73;;;;;;;3.96;86.82;99939.97;5064211;28;20024;-63
2021/12/04 01:43:44;;;;;;;76.70;24.40;;;;;;;4.02;86.91;99949.41;5047272;28;20040;-61
2021/12/04 01:46:10;;;;;;;82.15;28.83;;;;;;;3.97;86.89;99953.88;5045115;28;20103;-61
2021/12/04 01:48:35;;;;;;;78.57;28.38;;;;;;;3.99;86.78;99950.31;5044879;28;20021;-61
2021/12/04 01:51:00;;;;;;;80.38;27.55;;;;;;;4.03;86.73;99957.19;5044728;28;20441;-61
2021/12/04 01:53:26;;;;;;;79.05;26.88;;;;;;;4.01;86.71;99955.50;5044964;28;20033;-64
2021/12/04 01:55:53;;;;;;;89.78;28.42;;;;;;;4.00;86.95;99945.97;5044222;28;20421;-60
2021/12/04 01:58:19;;;;;;;85.80;26.30;;;;;;;4.02;87.23;99954.59;5047887;28;20120;-63
2021/12/04 02:00:45;;;;;;;87.35;27.35;;;;;;;4.01;87.16;99952.91;5057525;28;20647;-61
2021/12/04 02:03:13;;;;;;;93.88;28.80;;;;;;;4.04;86.87;99947.63;5045874;28;20021;-62
2021/12/04 02:05:39;;;;;;;83.93;27.52;;;;;;;4.02;86.97;99942.44;5044725;28;20093;-60
2021/12/04 02:08:06;;;;;;;78.32;27.30;;;;;;;4.07;87.01;99944.09;5045897;28;20058;-62
2021/12/04 02:10:32;;;;;;;93.72;30.10;;;;;;;4.02;86.99;99936.38;5053217;28;20574;-61
2021/12/04 02:12:58;;;;;;;75.80;27.25;;;;;;;4.02;87.03;99934.63;5063160;28;20455;-60
2021/12/04 02:15:23;;;;;;;74.50;26.38;;;;;;;4.02;86.86;99934.63;5047252;28;20040;-60
2021/12/04 02:17:49;;;;;;;88.35;29.70;;;;;;;4.02;87.00;99936.38;5062026;28;20025;-61
2021/12/04 02:20:17;;;;;;;83.53;27.83;;;;;;;4.00;87.19;99932.94;5062968;28;20032;-62
2021/12/04 02:22:43;;;;;;;82.13;27.40;;;;;;;4.01;87.10;99935.50;5064490;28;20098;-61
2021/12/04 02:25:09;;;;;;;82.00;26.05;;;;;;;4.01;87.07;99932.03;5063176;28;20050;-61
2021/12/04 02:27:35;;;;;;;77.95;24.90;;;;;;;4.02;87.20;99933.75;5064486;28;20431;-61
2021/12/04 02:30:02;;;;;;;75.97;26.30;;;;;;;4.01;87.20;99938.09;5054865;28;20028;-62
2021/12/04 02:32:29;;;;;;;93.53;26.38;;;;;;;3.99;87.34;99936.41;5045763;28;20036;-62
2021/12/04 02:34:55;;;;;;;93.25;25.15;;;;;;;3.98;87.47;99938.19;5042727;28;20456;-63
2021/12/04 02:37:20;;;;;;;75.00;24.95;;;;;;;4.02;87.12;99921.59;5043560;28;20100;-62
2021/12/04 02:39:46;;;;;;;95.60;29.08;;;;;;;4.00;87.25;99925.13;5052942;28;20469;-61
2021/12/04 02:42:23;;;;;;;88.70;25.73;;;;;;;4.02;87.16;99928.53;5033652;28;20025;-62
2021/12/04 02:44:49;;;;;;;115.80;31.80;;;;;;;3.94;87.54;99926.09;5025644;28;20032;-62
2021/12/04 02:47:15;;;;;;;114.60;32.90;;;;;;;3.90;87.72;99930.53;5065399;28;20025;-64
2021/12/04 02:49:40;;;;;;;102.18;30.17;;;;;;;3.89;87.92;99926.19;5051583;28;20024;-61
2021/12/04 02:52:09;;;;;;;92.45;25.92;;;;;;;4.00;87.80;99928.56;5050548;28;20028;-61
2021/12/04 02:54:34;;;;;;;109.38;31.10;;;;;;;3.93;87.82;99924.38;5062894;28;20033;-61
2021/12/04 02:57:00;;;;;;;97.13;28.02;;;;;;;3.95;87.79;99926.97;5063490;28;20324;-62
2021/12/04 02:59:26;;;;;;;95.00;28.00;;;;;;;3.98;87.73;99926.91;5063522;28;20108;-60
2021/12/04 03:01:55;;;;;;;100.72;28.55;;;;;;;3.98;88.09;99919.94;5053661;28;20047;-61
2021/12/04 03:04:23;;;;;;;81.15;24.70;;;;;;;3.98;87.83;99921.69;5061800;28;20455;-61
2021/12/04 03:06:48;;;;;;;88.15;26.30;;;;;;;4.01;87.70;99922.47;5052770;28;20025;-60
2021/12/04 03:09:15;;;;;;;120.75;34.05;;;;;;;3.94;87.67;99920.03;5043664;28;20372;-62
2021/12/04 03:11:40;;;;;;;95.25;26.95;;;;;;;3.94;88.07;99915.66;5043740;28;20037;-62
2021/12/04 03:14:06;;;;;;;67.68;19.98;;;;;;;3.99;87.94;99912.97;5049257;28;20024;-61
2021/12/04 03:16:34;;;;;;;99.85;28.00;;;;;;;4.00;87.91;99912.94;5047358;28;20025;-61
2021/12/04 03:18:59;;;;;;;88.22;25.27;;;;;;;4.03;87.79;99915.47;5043800;28;21081;-61
2021/12/04 03:21:25;;;;;;;128.20;33.83;;;;;;;3.95;88.11;99908.72;5045842;28;20039;-61
2021/12/04 03:23:53;;;;;;;142.98;34.15;;;;;;;3.89;87.99;99905.34;5063434;28;20032;-61
2021/12/04 03:26:20;;;;;;;112.05;30.48;;;;;;;3.97;88.13;99899.97;5061940;28;20028;-61
2021/12/04 03:28:45;;;;;;;82.65;23.90;;;;;;;3.97;87.98;99889.53;5027470;28;20120;-62
2021/12/04 03:41:48;;;;;;;94.43;25.05;;;;;;;4.07;87.70;99871.09;5046205;28;20375;-61
2021/12/04 03:44:13;;;;;;;109.53;29.15;;;;;;;4.09;87.71;99867.53;5062601;28;20020;-60
2021/12/04 03:46:39;;;;;;;118.15;28.50;;;;;;;4.00;87.99;99860.78;5063284;28;20443;-61
2021/12/04 03:49:04;;;;;;;114.72;27.08;;;;;;;4.04;87.99;99859.81;5063038;28;20395;-62
2021/12/04 03:51:29;;;;;;;107.30;26.00;;;;;;;4.03;88.15;99860.72;5063374;28;20024;-62
2021/12/04 03:53:55;;;;;;;123.63;30.48;;;;;;;4.06;88.13;99858.97;5049633;28;20057;-60
2021/12/04 03:56:21;;;;;;;118.65;29.00;;;;;;;4.07;88.44;99858.06;5041991;28;20036;-62
2021/12/04 03:58:47;;;;;;;134.52;33.58;;;;;;;4.10;87.90;99857.97;5052358;28;20075;-61
2021/12/04 04:01:12;;;;;;;117.75;32.05;;;;;;;4.09;87.85;99856.28;5063358;28;20041;-62
2021/12/04 04:03:38;;;;;;;132.65;29.92;;;;;;;4.07;88.06;99851.09;5062324;28;20093;-61
2021/12/04 04:06:03;;;;;;;111.88;27.92;;;;;;;4.06;88.17;99853.75;5063013;28;20048;-61
2021/12/04 04:08:28;;;;;;;102.30;24.63;;;;;;;4.07;88.16;99851.09;5063419;28;20107;-61
2021/12/04 04:10:54;;;;;;;122.22;29.05;;;;;;;4.10;88.08;99845.81;5066827;28;20031;-61
2021/12/04 04:13:20;;;;;;;95.53;22.45;;;;;;;4.13;87.98;99839.66;5065659;28;20039;-61
2021/12/04 04:15:46;;;;;;;117.43;26.50;;;;;;;4.12;88.04;99843.19;5067081;28;20020;-61
2021/12/04 04:18:11;;;;;;;104.10;26.17;;;;;;;4.11;88.13;99851.88;5065049;28;20353;-62
2021/12/04 04:20:37;;;;;;;132.15;30.90;;;;;;;4.12;87.90;99841.41;5047270;28;20463;-61
2021/12/04 04:23:03;;;;;;;97.70;22.45;;;;;;;4.11;88.23;99834.50;5046117;28;20029;-61
2021/12/04 04:25:28;;;;;;;113.20;27.80;;;;;;;4.16;88.22;99839.59;5045526;28;20049;-61
2021/12/04 04:27:54;;;;;;;90.75;22.77;;;;;;;4.10;88.13;99832.78;5045789;28;20057;-61
2021/12/04 04:30:19;;;;;;;121.07;30.77;;;;;;;4.13;88.20;99829.25;5046084;28;20028;-62
2021/12/04 04:32:47;;;;;;;204.07;35.80;;;;;;;4.06;88.41;99832.88;5046148;28;20053;-63
2021/12/04 04:35:19;;;;;;;127.43;29.67;;;;;;;4.04;88.64;99835.53;5054551;28;20032;-61
2021/12/04 04:57:33;;;;;;;115.75;25.48;;;;;;;4.17;88.32;99830.88;5049511;28;20067;-62
2021/12/04 05:13:01;;;;;;;181.63;39.05;;;;;;;4.11;88.85;99802.34;5012471;28;20107;-61
2021/12/04 05:21:03;;;;;;;106.18;26.15;;;;;;;4.18;88.81;99798.69;5059325;28;20048;-64
2021/12/04 05:23:29;;;;;;;143.65;33.88;;;;;;;4.12;88.67;99794.47;5053112;28;20021;-62
2021/12/04 05:25:54;;;;;;;161.80;36.03;;;;;;;4.15;88.89;99798.75;5045784;28;20040;-61
2021/12/04 05:28:20;;;;;;;104.07;23.48;;;;;;;4.20;88.70;99796.03;5046136;28;20032;-62
2021/12/04 05:30:45;;;;;;;120.72;28.30;;;;;;;4.23;88.46;99789.00;5045924;28;20036;-64
2021/12/04 05:33:10;;;;;;;114.32;25.35;;;;;;;4.22;88.43;99786.44;5046316;28;20048;-62
2021/12/04 05:35:36;;;;;;;136.00;32.42;;;;;;;4.20;88.56;99788.22;5046265;28;20028;-62
2021/12/04 05:38:01;;;;;;;134.30;33.40;;;;;;;4.19;88.57;99782.16;5046182;28;20053;-61
2021/12/04 05:40:27;;;;;;;146.23;37.17;;;;;;;4.20;88.41;99786.47;5045083;28;20044;-63
2021/12/04 05:43:00;;;;;;;115.13;27.05;;;;;;;4.21;88.68;99782.97;5045468;28;20104;-61
2021/12/04 05:45:26;;;;;;;130.02;30.17;;;;;;;4.22;88.64;99784.69;5046130;28;20093;-61
2021/12/04 05:53:04;;;;;;;131.50;26.70;;;;;;;4.19;88.73;99776.94;5057928;28;20487;-62
2021/12/04 05:55:32;;;;;;;137.52;33.78;;;;;;;4.21;88.62;99772.53;5064998;28;20622;-63
2021/12/04 05:57:57;;;;;;;174.52;33.33;;;;;;;4.18;88.81;99777.81;5064658;28;20394;-62
2021/12/04 06:00:25;;;;;;;134.88;32.15;;;;;;;4.15;88.72;99770.94;5046847;28;20048;-61
2021/12/04 06:02:50;;;;;;;188.70;38.85;;;;;;;4.17;88.78;99776.13;5064584;28;20401;-61
2021/12/04 06:05:17;;;;;;;217.07;39.72;;;;;;;4.11;88.91;99769.31;5064059;28;20081;-63
2021/12/04 06:07:43;;;;;;;153.77;33.08;;;;;;;4.13;89.07;99764.06;5047174;28;20105;-62
2021/12/04 06:10:08;;;;;;;172.10;36.50;;;;;;;4.10;89.10;99769.34;5056300;28;20128;-62
2021/12/04 06:12:34;;;;;;;140.82;28.83;;;;;;;4.09;89.16;99778.06;5059864;28;20036;-61
2021/12/04 06:15:00;;;;;;;167.27;37.97;;;;;;;4.11;89.09;99769.31;5025919;28;20053;-61
2021/12/04 06:17:28;;;;;;;228.18;37.95;;;;;;;4.12;88.98;99762.34;5045004;28;20462;-62
2021/12/04 06:22:38;;;;;;;119.03;27.95;;;;;;;4.19;88.83;99758.69;5045000;28;20035;-61
2021/12/04 06:25:15;;;;;;;135.05;28.98;;;;;;;4.17;88.75;99765.69;5047174;28;20334;-61
2021/12/04 06:27:41;;;;;;;192.32;34.20;;;;;;;4.18;88.55;99756.97;5063175;28;20086;-62
2021/12/04 06:30:10;;;;;;;132.35;31.98;;;;;;;4.21;88.53;99756.88;5062430;28;20074;-62
2021/12/04 06:32:37;;;;;;;98.78;24.92;;;;;;;4.21;88.65;99750.84;5064568;28;20120;-62
2021/12/04 06:35:07;;;;;;;159.10;32.25;;;;;;;4.19;88.42;99758.69;5062703;28;20395;-61
2021/12/04 06:37:32;;;;;;;157.13;31.30;;;;;;;4.19;88.64;99763.91;5065077;28;20080;-62
2021/12/04 06:39:58;;;;;;;135.82;30.65;;;;;;;4.21;88.61;99764.72;5061587;28;20044;-63
2021/12/04 06:42:23;;;;;;;118.95;27.58;;;;;;;4.23;88.64;99765.53;5064955;28;20024;-62
2021/12/04 06:44:51;;;;;;;119.05;28.80;;;;;;;4.25;88.60;99762.91;5063050;28;20029;-62
2021/12/04 06:47:17;;;;;;;92.03;24.45;;;;;;;4.22;88.57;99769.06;5045080;28;20025;-63
2021/12/04 06:49:43;;;;;;;131.65;30.88;;;;;;;4.20;88.46;99760.41;5043895;28;20102;-62
2021/12/04 06:52:15;;;;;;;139.60;32.30;;;;;;;4.17;88.77;99763.06;5059252;28;20078;-62
2021/12/04 06:54:48;;;;;;;106.53;25.08;;;;;;;4.15;88.54;99768.34;5062996;28;20419;-62
2021/12/04 06:57:13;;;;;;;131.43;28.13;;;;;;;4.16;88.60;99766.59;5063790;28;20064;-62
2021/12/04 06:59:40;;;;;;;104.72;25.38;;;;;;;4.21;88.47;99766.47;5063045;28;20071;-61
2021/12/04 07:02:05;;;;;;;104.85;25.95;;;;;;;4.21;88.00;99766.47;5051510;28;20029;-61
2021/12/04 07:04:35;;;;;;;86.88;21.52;;;;;;;4.22;87.82;99758.63;5043710;28;20025;-62
2021/12/04 07:07:01;;;;;;;88.82;24.20;;;;;;;4.12;87.79;99759.75;5052583;28;20360;-64
2021/12/04 07:09:27;;;;;;;91.13;22.80;;;;;;;4.09;88.14;99765.03;5062154;28;20029;-62
2021/12/04 07:11:52;;;;;;;116.50;29.60;;;;;;;4.04;88.22;99765.13;5058857;28;20058;-61
2021/12/04 07:14:17;;;;;;;86.90;22.08;;;;;;;4.03;88.19;99753.84;5046507;28;20145;-63
2021/12/04 07:16:43;;;;;;;64.85;18.98;;;;;;;4.04;87.76;99757.31;5063429;28;20021;-62
2021/12/04 07:19:09;;;;;;;60.00;17.67;;;;;;;4.03;87.52;99753.84;5043796;28;20119;-66
2021/12/04 07:21:34;;;;;;;67.40;18.45;;;;;;;4.01;87.43;99744.34;5049796;28;20032;-65
2021/12/04 07:24:01;;;;;;;67.45;18.38;;;;;;;3.97;87.52;99740.13;5061609;28;20403;-70
2021/12/04 07:26:26;;;;;;;63.08;17.50;;;;;;;3.93;87.50;99747.13;5061702;28;20021;-67
2021/12/04 07:28:51;;;;;;;48.35;15.07;;;;;;;3.95;87.50;99752.31;5062943;28;20082;-68
2021/12/04 07:31:17;;;;;;;64.47;18.13;;;;;;;3.91;87.78;99751.53;5062224;28;20029;-66
2021/12/04 07:33:43;;;;;;;48.85;14.63;;;;;;;3.93;87.50;99747.13;5063077;28;20115;-61
2021/12/04 07:36:08;;;;;;;61.28;17.27;;;;;;;3.85;87.69;99739.50;5061320;28;20103;-63
2021/12/04 07:38:34;;;;;;;64.15;17.80;;;;;;;3.83;87.79;99743.91;5061954;28;20119;-64
2021/12/04 07:41:03;;;;;;;69.10;19.02;;;;;;;3.77;87.90;99736.22;5057917;28;20119;-66
2021/12/04 07:43:28;;;;;;;;;;;;;;;3.73;88.23;99730.22;5034659;28;20013;-65
2021/12/04 07:45:54;;;;;;;60.20;15.80;;;;;;;3.72;88.11;99722.44;5048033;28;20008;-65
2021/12/04 07:48:19;;;;;;;66.20;18.13;;;;;;;3.67;87.99;99719.94;5065327;28;20075;-63
2021/12/04 07:50:45;;;;;;;42.28;13.73;;;;;;;3.70;87.88;99726.84;5066263;28;20024;-65
2021/12/04 07:53:10;;;;;;;45.45;15.07;;;;;;;3.67;87.99;99712.13;5065126;28;20108;-64
2021/12/04 07:55:35;;;;;;;62.63;18.13;;;;;;;3.65;88.06;99703.50;5047149;28;20020;-63
2021/12/04 07:58:01;;;;;;;76.75;18.88;;;;;;;3.70;88.00;99693.81;5064344;28;20021;-63
2021/12/04 08:00:27;;;;;;;76.72;19.83;;;;;;;3.64;88.30;99699.16;5066067;28;20049;-69
2021/12/04 08:02:52;;;;;;;104.93;20.42;;;;;;;3.59;88.33;99706.25;5065497;28;20020;-64
2021/12/04 08:05:18;;;;;;;58.50;14.60;;;;;;;3.63;88.73;99697.47;5064380;28;20130;-64
2021/12/04 08:07:44;;;;;;;96.25;19.83;;;;;;;3.65;88.62;99698.28;5062556;28;20012;-64
2021/12/04 08:10:12;;;;;;;90.13;23.05;;;;;;;3.66;88.80;99689.56;5062992;28;20040;-62
2021/12/04 08:12:38;;;;;;;79.32;21.48;;;;;;;3.64;88.81;99699.16;5064342;28;20020;-64
2021/12/04 08:15:05;;;;;;;64.38;18.45;;;;;;;3.62;88.45;99694.03;5063861;28;20488;-62
2021/12/04 08:17:30;;;;;;;69.15;18.02;;;;;;;3.59;88.47;99699.28;5066000;28;20127;-61
2021/12/04 08:19:56;;;;;;;57.47;17.42;;;;;;;3.59;87.89;99701.03;5048201;28;20031;-66
2021/12/04 08:22:21;;;;;;;54.50;17.02;;;;;;;3.59;88.12;99699.28;5067241;28;20033;-70
2021/12/04 08:24:47;;;;;;;68.68;19.65;;;;;;;3.58;88.08;99702.78;5064471;28;20035;-68
2021/12/04 08:27:15;;;;;;;59.28;17.65;;;;;;;3.61;88.15;99697.50;5067691;28;20021;-69
2021/12/04 08:29:40;;;;;;;59.67;19.67;;;;;;;3.69;87.52;99712.09;5047148;28;20029;-57
2021/12/04 08:32:07;;;;;;;48.50;14.52;;;;;;;3.71;87.76;99716.38;5065790;28;20403;-64
2021/12/04 08:34:33;;;;;;;63.28;19.35;;;;;;;3.71;87.03;99724.22;5064733;28;20032;-65
2021/12/04 08:36:58;;;;;;;38.28;13.20;;;;;;;3.72;87.23;99712.88;5066593;28;20467;-66
2021/12/04 08:39:23;;;;;;;47.90;16.58;;;;;;;3.71;87.12;99721.59;5061484;28;20020;-65
2021/12/04 08:41:49;;;;;;;67.38;20.88;;;;;;;3.63;87.44;99711.34;5046333;28;20040;-65
2021/12/04 08:44:15;;;;;;;51.90;18.52;;;;;;;3.66;87.35;99706.06;5045021;28;20229;-67
2021/12/04 08:46:40;;;;;;;43.30;14.82;;;;;;;3.71;87.03;99705.09;5046864;28;20119;-64
2021/12/04 08:49:06;;;;;;;59.60;20.55;;;;;;;3.67;87.05;99699.97;5045312;28;20397;-66
2021/12/04 08:51:33;;;;;;;48.97;15.52;;;;;;;3.73;87.18;99700.72;5058725;28;20032;-67
2021/12/04 08:53:58;;;;;;;69.50;21.10;;;;;;;3.77;87.13;99694.53;5063640;28;20017;-67
2021/12/04 08:56:24;;;;;;;56.28;18.13;;;;;;;3.85;87.07;99689.16;5046434;28;20031;-65
2021/12/04 08:58:50;;;;;;;71.10;24.10;;;;;;;3.86;86.72;99685.63;5065145;28;20573;-64
2021/12/04 09:01:24;;;;;;;72.70;24.00;;;;;;;3.83;86.78;99678.75;5044405;28;20037;-63
2021/12/04 09:03:53;;;;;;;79.78;25.92;;;;;;;3.94;86.49;99680.25;5065175;28;20028;-65
2021/12/04 09:06:19;;;;;;;99.75;30.75;;;;;;;3.93;86.34;99681.97;5060125;28;20114;-64
2021/12/04 09:08:45;;;;;;;113.78;35.13;;;;;;;3.91;86.66;99681.16;5063841;28;20486;-67
2021/12/04 09:11:17;;;;;;;75.95;24.33;;;;;;;3.96;86.78;99673.22;5046265;28;20028;-63
2021/12/04 09:13:44;;;;;;;105.70;33.45;;;;;;;4.00;86.61;99675.72;5063891;28;20021;-63
2021/12/04 09:16:09;;;;;;;98.78;30.75;;;;;;;4.04;86.77;99679.94;5059732;28;20028;-60
2021/12/04 09:18:35;;;;;;;114.82;34.10;;;;;;;4.01;86.60;99679.19;5062744;28;20035;-60
2021/12/04 09:21:02;;;;;;;93.88;30.33;;;;;;;4.12;86.25;99682.38;5064404;28;20067;-64
2021/12/04 09:23:33;;;;;;;111.20;31.98;;;;;;;4.12;86.34;99674.53;5064852;28;20028;-63
2021/12/04 09:26:02;;;;;;;105.82;32.65;;;;;;;4.08;86.85;99678.13;5064129;28;20471;-64
2021/12/04 09:59:17;;;;;;;103.90;26.90;;;;;;;4.22;86.61;99659.53;5029960;28;20186;-64
2021/12/04 10:01:02;;;;;;;88.32;28.50;;;;;;;4.27;86.24;99639.38;5051448;28;20107;-64
2021/12/04 10:17:28;;;;;;;68.55;26.17;;;;;;;4.29;86.08;99611.53;5034509;28;20436;-64
2021/12/04 10:33:17;;;;;;;72.60;24.90;;;;;;;4.52;85.43;99604.78;5064709;28;20119;-55
2021/12/04 10:35:44;;;;;;;70.53;24.70;;;;;;;4.64;85.21;99600.13;5051007;28;21446;-61
2021/12/04 10:38:18;;;;;;;69.78;24.38;;;;;;;4.68;84.89;99601.75;5062887;28;20020;-63
2021/12/04 10:40:44;;;;;;;51.53;18.20;;;;;;;4.78;84.90;99595.34;5062016;28;20028;-64
2021/12/04 10:43:16;;;;;;;67.10;22.35;;;;;;;4.66;84.81;99603.53;5061630;28;20023;-64
2021/12/04 10:45:45;;;;;;;72.50;24.33;;;;;;;4.60;84.96;99596.75;5053609;28;20021;-65
2021/12/04 10:48:17;;;;;;;75.80;25.58;;;;;;;4.57;85.10;99596.00;5044129;28;20078;-64
2021/12/04 10:51:22;;;;;;;63.50;22.50;;;;;;;4.62;84.92;99610.59;5043105;28;20110;-63
2021/12/04 10:53:38;;;;;;;56.80;19.83;;;;;;;4.67;84.83;99606.09;5043370;28;20503;-68
2021/12/04 11:03:57;;;;;;;66.75;20.20;;;;;;;4.58;85.45;99592.47;5043120;28;20588;-67
2021/12/04 11:26:54;;;;;;;96.78;28.25;;;;;;;4.60;85.46;99557.59;5066707;28;20118;-64
2021/12/04 11:43:15;;;;;;;109.35;29.70;;;;;;;4.69;86.15;99525.16;5054782;28;20110;-61
2021/12/04 11:45:48;;;;;;;106.18;28.95;;;;;;;4.75;85.93;99522.34;5031980;28;20025;-61
2021/12/04 11:48:13;;;;;;;127.35;34.50;;;;;;;4.79;85.96;99513.53;5052117;28;20110;-62
2021/12/04 11:50:40;;;;;;;109.07;28.67;;;;;;;4.82;85.68;99516.97;5053616;28;20115;-60
2021/12/04 11:53:10;;;;;;;94.40;25.52;;;;;;;4.94;85.54;99508.75;5066011;28;20431;-62
2021/12/04 11:55:38;;;;;;;109.72;31.35;;;;;;;5.01;85.33;99505.03;5045905;28;20021;-62
2021/12/04 11:58:16;;;;;;;90.30;24.20;;;;;;;5.06;85.20;99499.66;5063524;28;20147;-61
2021/12/04 12:00:41;;;;;;;98.50;29.25;;;;;;;5.01;85.21;99496.34;5054631;28;20049;-62
2021/12/04 12:03:15;;;;;;;105.70;28.60;;;;;;;5.03;85.14;99503.22;5066321;28;20094;-66
2021/12/04 12:05:53;;;;;;;101.25;26.85;;;;;;;5.00;84.94;99500.69;5065263;28;20031;-56
2021/12/04 12:08:31;;;;;;;93.10;24.90;;;;;;;5.03;84.94;99495.38;5064828;28;20382;-54
2021/12/04 12:11:00;;;;;;;98.97;28.27;;;;;;;4.95;85.18;99497.41;5063966;28;20096;-58
2021/12/04 12:13:29;;;;;;;97.53;28.88;;;;;;;4.95;85.54;99489.56;5061231;28;20035;-57
2021/12/04 12:16:18;;;;;;;80.53;24.90;;;;;;;4.98;85.14;99507.75;5065275;28;20048;-61
2021/12/04 12:18:51;;;;;;;83.03;25.87;;;;;;;4.93;85.39;99514.84;5066208;28;20047;-61
2021/12/04 12:21:20;;;;;;;73.35;24.02;;;;;;;4.88;85.28;99506.31;5061488;28;20612;-60
2021/12/04 12:26:50;;;;;;;58.03;18.38;;;;;;;4.89;85.60;99498.44;5066637;28;20398;-61
2021/12/04 12:36:06;;;;;;;54.35;20.52;;;;;;;4.89;86.01;99500.19;5060350;28;20118;-62
2021/12/04 12:38:43;;;;;;;62.97;19.70;;;;;;;4.93;85.86;99489.59;5052474;28;20025;-62
2021/12/04 12:41:16;;;;;;;51.75;17.02;;;;;;;4.95;86.05;99497.41;5046278;28;20067;-61
2021/12/04 12:43:59;;;;;;;51.05;18.38;;;;;;;5.01;85.75;99489.38;5028859;28;20033;-61
2021/12/04 12:47:04;;;;;;;52.58;17.60;;;;;;;4.99;85.70;99480.72;5047605;28;20102;-61
2021/12/04 12:49:42;;;;;;;56.50;20.52;;;;;;;4.95;85.47;99486.09;5046864;28;20033;-61
2021/12/04 12:52:13;;;;;;;45.80;16.13;;;;;;;5.06;85.22;99476.16;5053625;28;20144;-61
2021/12/04 12:54:40;;;;;;;44.92;17.90;;;;;;;5.04;85.03;99473.59;5066018;28;20037;-57
2021/12/04 12:57:31;;;;;;;49.92;19.85;;;;;;;5.05;84.83;99474.44;5064888;28;20028;-62
2021/12/04 13:14:15;;;;;;;34.28;13.00;;;;;;;5.09;85.32;99462.97;5063948;28;20112;-60
2021/12/04 13:17:03;;;;;;;34.65;13.35;;;;;;;5.03;85.29;99464.03;5064822;28;20386;-61
2021/12/04 13:19:30;;;;;;;28.90;12.35;;;;;;;5.04;85.56;99462.28;5052328;28;20120;-61
2021/12/04 13:21:58;;;;;;;31.88;12.73;;;;;;;5.13;85.22;99463.75;5044541;28;20032;-59
2021/12/04 13:24:26;;;;;;;29.05;12.77;;;;;;;5.11;85.10;99465.53;5042539;28;20079;-63
2021/12/04 13:26:53;;;;;;;27.70;10.63;;;;;;;5.14;85.22;99470.66;5055103;28;20051;-63
2021/12/04 13:29:21;;;;;;;23.00;9.57;;;;;;;5.21;84.90;99477.38;5065459;28;20016;-63
2021/12/04 13:31:47;;;;;;;19.75;9.30;;;;;;;5.29;83.85;99501.50;5046368;28;20439;-62
2021/12/04 13:34:14;;;;;;;17.15;7.28;;;;;;;5.30;82.30;99484.91;5047197;28;20025;-64
2021/12/04 13:36:45;;;;;;;16.92;7.60;;;;;;;5.29;82.66;99490.19;5012019;28;20462;-65
2021/12/04 13:39:14;;;;;;;17.38;6.97;;;;;;;5.22;82.62;99481.72;5053841;28;20066;-64
2021/12/04 13:41:42;;;;;;;22.80;8.13;;;;;;;5.17;83.40;99486.22;5045809;28;20029;-64
2021/12/04 13:44:09;;;;;;;23.48;8.10;;;;;;;5.17;83.41;99488.84;5044451;28;20518;-65
2021/12/04 13:46:47;;;;;;;24.25;7.03;;;;;;;5.11;83.82;99489.03;5044778;28;20064;-67
2021/12/04 13:49:14;;;;;;;14.98;5.97;;;;;;;5.14;83.39;99476.75;5059431;28;20040;-67
2021/12/04 13:51:40;;;;;;;17.45;5.75;;;;;;;5.13;83.59;99493.34;5065477;28;20047;-67
2021/12/04 13:54:07;;;;;;;10.18;4.55;;;;;;;5.14;83.31;99494.16;5044328;28;20029;-66
2021/12/04 13:56:32;;;;;;;12.05;4.05;;;;;;;5.12;83.55;99494.22;5064860;28;20037;-67
2021/12/04 13:59:02;;;;;;;10.98;3.35;;;;;;;5.09;83.61;99496.09;5063843;28;20037;-66
2021/12/04 14:01:30;;;;;;;7.57;3.28;;;;;;;5.04;84.04;99497.09;5065022;28;20163;-65
2021/12/04 14:04:00;;;;;;;5.55;2.72;;;;;;;5.09;84.31;99496.09;5062495;28;20047;-64
2021/12/04 14:06:26;;;;;;;8.68;2.72;;;;;;;5.08;84.57;99497.00;5065808;28;20017;-66
2021/12/04 14:09:09;;;;;;;4.88;1.80;;;;;;;5.09;84.40;99496.09;5053242;28;20043;-65
2021/12/04 14:11:40;;;;;;;9.40;1.73;;;;;;;5.10;83.86;99501.25;5064824;28;20659;-66
2021/12/04 14:14:17;;;;;;;6.40;1.95;;;;;;;5.11;83.66;99507.31;5058308;28;20033;-65
2021/12/04 14:16:45;;;;;;;7.35;0.90;;;;;;;5.13;83.56;99505.53;5057104;28;20120;-67
2021/12/04 14:19:13;;;;;;;3.05;0.73;;;;;;;5.15;83.73;99508.94;5060175;28;20091;-65
2021/12/04 14:21:38;;;;;;;3.88;0.85;;;;;;;5.17;83.35;99509.75;5045369;28;20471;-67
2021/12/04 14:24:04;;;;;;;8.02;1.13;;;;;;;5.13;83.50;99513.34;5046020;28;20044;-68
2021/12/04 14:26:29;;;;;;;3.33;0.80;;;;;;;5.13;83.66;99516.84;5052067;28;20028;-65
2021/12/04 14:28:55;;;;;;;2.58;0.57;;;;;;;5.17;83.32;99530.63;5048497;28;20498;-66
2021/12/04 14:31:23;;;;;;;4.97;1.33;;;;;;;5.16;83.00;99521.97;5044641;28;20025;-67
2021/12/04 14:33:49;;;;;;;1.92;0.95;;;;;;;5.14;82.74;99520.28;5036131;28;20421;-66
2021/12/04 14:36:19;;;;;;;6.13;0.95;;;;;;;5.14;82.81;99528.13;5047366;28;20025;-66
2021/12/04 14:38:45;;;;;;;3.67;0.80;;;;;;;5.15;82.62;99533.28;5043324;28;20466;-67